sensor_id;sensor_type;location;lat;lon;timestamp;pressure;altitude;pressure_sealevel;temperature;humidity
59971;BME280;45825;45.434;9.116;2023-04-06T00:00:23;100606.84;;;9.11;34.93
59971;BME280;45825;45.434;9.116;2023-04-06T00:02:48;100605.88;;;9.14;34.85
59971;BME280;45825;45.434;9.116;2023-04-06T00:05:14;100607.22;;;9.22;34.66
59971;BME280;45825;45.434;9.116;2023-04-06T00:07:40;100602.94;;;9.01;34.56
59971;BME280;45825;45.434;9.116;2023-04-06T00:10:05;100602.16;;;8.99;34.64
59971;BME280;45825;45.434;9.116;2023-04-06T00:12:31;100607.94;;;9.07;35.09
59971;BME280;45825;45.434;9.116;2023-04-06T00:14:56;100610.56;;;8.86;35.18
59971;BME280;45825;45.434;9.116;2023-04-06T00:17:22;100618.53;;;9.04;34.78
59971;BME280;45825;45.434;9.116;2023-04-06T00:19:47;100620.97;;;8.88;35.19
59971;BME280;45825;45.434;9.116;2023-04-06T00:22:13;100611.13;;;8.93;35.05
59971;BME280;45825;45.434;9.116;2023-04-06T00:24:38;100615.59;;;8.91;34.58
59971;BME280;45825;45.434;9.116;2023-04-06T00:27:03;100616.84;;;8.82;35.14
59971;BME280;45825;45.434;9.116;2023-04-06T00:29:28;100614.81;;;8.89;35.09
59971;BME280;45825;45.434;9.116;2023-04-06T00:31:54;100609.88;;;8.81;35.11
59971;BME280;45825;45.434;9.116;2023-04-06T00:34:19;100607.53;;;8.96;35.04
59971;BME280;45825;45.434;9.116;2023-04-06T00:36:45;100602.41;;;8.92;34.73
59971;BME280;45825;45.434;9.116;2023-04-06T00:39:10;100604.44;;;8.86;35.17
59971;BME280;45825;45.434;9.116;2023-04-06T00:41:36;100591.22;;;8.89;35.20
59971;BME280;45825;45.434;9.116;2023-04-06T00:44:01;100587.66;;;8.90;35.31
59971;BME280;45825;45.434;9.116;2023-04-06T00:46:28;100592.72;;;8.94;34.92
59971;BME280;45825;45.434;9.116;2023-04-06T00:48:53;100591.06;;;8.92;35.01
59971;BME280;45825;45.434;9.116;2023-04-06T00:51:18;100588.34;;;8.93;34.68
59971;BME280;45825;45.434;9.116;2023-04-06T00:53:44;100598.06;;;8.91;34.83
59971;BME280;45825;45.434;9.116;2023-04-06T00:56:10;100600.06;;;8.86;34.31
59971;BME280;45825;45.434;9.116;2023-04-06T00:58:35;100591.22;;;8.89;34.82
59971;BME280;45825;45.434;9.116;2023-04-06T01:01:04;100599.47;;;8.79;34.67
59971;BME280;45825;45.434;9.116;2023-04-06T01:03:29;100591.00;;;8.73;35.32
59971;BME280;45825;45.434;9.116;2023-04-06T01:05:54;100589.16;;;8.75;34.80
59971;BME280;45825;45.434;9.116;2023-04-06T01:08:23;100592.53;;;8.78;34.65
59971;BME280;45825;45.434;9.116;2023-04-06T01:10:49;100595.84;;;8.82;34.45
59971;BME280;45825;45.434;9.116;2023-04-06T01:13:15;100599.53;;;8.78;34.22
59971;BME280;45825;45.434;9.116;2023-04-06T01:15:40;100595.16;;;8.78;34.44
59971;BME280;45825;45.434;9.116;2023-04-06T01:18:08;100595.84;;;8.82;34.48
59971;BME280;45825;45.434;9.116;2023-04-06T01:20:35;100600.97;;;8.64;34.99
59971;BME280;45825;45.434;9.116;2023-04-06T01:23:01;100603.25;;;8.72;34.74
59971;BME280;45825;45.434;9.116;2023-04-06T01:25:26;100597.81;;;8.77;34.68
59971;BME280;45825;45.434;9.116;2023-04-06T01:27:52;100596.03;;;8.77;33.97
59971;BME280;45825;45.434;9.116;2023-04-06T01:30:17;100596.59;;;8.43;34.67
59971;BME280;45825;45.434;9.116;2023-04-06T01:32:43;100605.69;;;8.56;34.88
59971;BME280;45825;45.434;9.116;2023-04-06T01:35:09;100604.94;;;8.52;34.55
59971;BME280;45825;45.434;9.116;2023-04-06T01:37:35;100598.53;;;8.37;34.92
59971;BME280;45825;45.434;9.116;2023-04-06T01:40:00;100603.41;;;8.47;34.90
59971;BME280;45825;45.434;9.116;2023-04-06T01:42:26;100604.75;;;8.57;34.89
59971;BME280;45825;45.434;9.116;2023-04-06T01:44:51;100602.91;;;8.59;34.23
59971;BME280;45825;45.434;9.116;2023-04-06T01:47:17;100603.97;;;8.55;34.47
59971;BME280;45825;45.434;9.116;2023-04-06T01:49:42;100605.53;;;8.59;34.52
59971;BME280;45825;45.434;9.116;2023-04-06T01:52:07;100605.72;;;8.55;34.55
59971;BME280;45825;45.434;9.116;2023-04-06T01:54:33;100605.56;;;8.37;34.70
59971;BME280;45825;45.434;9.116;2023-04-06T01:56:58;100602.41;;;8.72;34.48
59971;BME280;45825;45.434;9.116;2023-04-06T01:59:23;100598.34;;;8.64;34.63
59971;BME280;45825;45.434;9.116;2023-04-06T02:01:49;100607.00;;;8.44;34.52
59971;BME280;45825;45.434;9.116;2023-04-06T02:04:15;100603.84;;;8.58;34.37
59971;BME280;45825;45.434;9.116;2023-04-06T02:06:40;100599.81;;;8.49;34.39
59971;BME280;45825;45.434;9.116;2023-04-06T02:09:06;100594.88;;;8.42;34.83
59971;BME280;45825;45.434;9.116;2023-04-06T02:11:31;100595.16;;;8.34;35.18
59971;BME280;45825;45.434;9.116;2023-04-06T02:13:56;100598.56;;;8.15;35.38
59971;BME280;45825;45.434;9.116;2023-04-06T02:16:22;100594.66;;;8.25;35.25
59971;BME280;45825;45.434;9.116;2023-04-06T02:18:47;100603.03;;;8.34;35.43
59971;BME280;45825;45.434;9.116;2023-04-06T02:21:12;100596.97;;;8.33;35.12
59971;BME280;45825;45.434;9.116;2023-04-06T02:23:38;100598.06;;;8.05;35.51
59971;BME280;45825;45.434;9.116;2023-04-06T02:26:03;100596.44;;;8.03;35.80
59971;BME280;45825;45.434;9.116;2023-04-06T02:28:28;100597.78;;;8.13;35.68
59971;BME280;45825;45.434;9.116;2023-04-06T02:30:54;100591.66;;;8.13;35.59
59971;BME280;45825;45.434;9.116;2023-04-06T02:33:19;100596.00;;;8.14;35.51
59971;BME280;45825;45.434;9.116;2023-04-06T02:35:45;100595.50;;;8.04;35.95
59971;BME280;45825;45.434;9.116;2023-04-06T02:38:10;100596.47;;;8.01;35.88
59971;BME280;45825;45.434;9.116;2023-04-06T02:40:36;100599.75;;;8.06;36.42
59971;BME280;45825;45.434;9.116;2023-04-06T02:43:01;100594.34;;;8.11;35.88
59971;BME280;45825;45.434;9.116;2023-04-06T02:45:26;100597.63;;;8.16;35.75
59971;BME280;45825;45.434;9.116;2023-04-06T02:47:52;100599.94;;;8.02;35.99
59971;BME280;45825;45.434;9.116;2023-04-06T02:50:17;100597.94;;;7.86;36.17
59971;BME280;45825;45.434;9.116;2023-04-06T02:52:42;100597.25;;;8.03;35.45
59971;BME280;45825;45.434;9.116;2023-04-06T02:55:08;100586.41;;;8.13;35.73
59971;BME280;45825;45.434;9.116;2023-04-06T02:57:34;100589.66;;;7.97;35.63
59971;BME280;45825;45.434;9.116;2023-04-06T02:59:59;100588.56;;;8.03;35.60
59971;BME280;45825;45.434;9.116;2023-04-06T03:02:25;100594.69;;;8.02;35.56
59971;BME280;45825;45.434;9.116;2023-04-06T03:04:50;100593.84;;;8.01;35.43
59971;BME280;45825;45.434;9.116;2023-04-06T03:07:15;100588.31;;;8.09;35.29
59971;BME280;45825;45.434;9.116;2023-04-06T03:09:41;100590.88;;;8.10;35.33
59971;BME280;45825;45.434;9.116;2023-04-06T03:12:06;100595.75;;;7.97;35.13
59971;BME280;45825;45.434;9.116;2023-04-06T03:14:31;100598.06;;;8.05;34.95
59971;BME280;45825;45.434;9.116;2023-04-06T03:16:57;100598.88;;;8.07;34.86
59971;BME280;45825;45.434;9.116;2023-04-06T03:19:22;100603.38;;;7.80;35.32
59971;BME280;45825;45.434;9.116;2023-04-06T03:21:47;100602.59;;;7.78;35.69
59971;BME280;45825;45.434;9.116;2023-04-06T03:24:13;100604.78;;;7.66;36.12
59971;BME280;45825;45.434;9.116;2023-04-06T03:26:39;100604.03;;;7.87;35.19
59971;BME280;45825;45.434;9.116;2023-04-06T03:29:05;100604.88;;;7.87;35.71
59971;BME280;45825;45.434;9.116;2023-04-06T03:31:30;100605.31;;;7.76;35.80
59971;BME280;45825;45.434;9.116;2023-04-06T03:33:55;100594.25;;;7.90;35.76
59971;BME280;45825;45.434;9.116;2023-04-06T03:36:21;100596.09;;;7.88;35.74
59971;BME280;45825;45.434;9.116;2023-04-06T03:38:46;100600.16;;;7.97;35.71
59971;BME280;45825;45.434;9.116;2023-04-06T03:41:12;100603.28;;;8.05;35.03
59971;BME280;45825;45.434;9.116;2023-04-06T03:43:37;100609.28;;;8.09;35.14
59971;BME280;45825;45.434;9.116;2023-04-06T03:46:02;100606.72;;;7.61;36.59
59971;BME280;45825;45.434;9.116;2023-04-06T03:48:28;100613.03;;;7.79;35.44
59971;BME280;45825;45.434;9.116;2023-04-06T03:50:53;100609.09;;;7.67;35.66
59971;BME280;45825;45.434;9.116;2023-04-06T03:53:18;100604.75;;;7.90;35.43
59971;BME280;45825;45.434;9.116;2023-04-06T03:55:44;100609.72;;;7.74;35.64
59971;BME280;45825;45.434;9.116;2023-04-06T03:58:09;100616.41;;;7.59;35.96
59971;BME280;45825;45.434;9.116;2023-04-06T04:00:34;100610.03;;;7.66;35.54
59971;BME280;45825;45.434;9.116;2023-04-06T04:03:00;100618.28;;;7.55;36.04
59971;BME280;45825;45.434;9.116;2023-04-06T04:05:27;100612.59;;;7.68;35.99
59971;BME280;45825;45.434;9.116;2023-04-06T04:07:52;100605.66;;;7.67;36.19
59971;BME280;45825;45.434;9.116;2023-04-06T04:10:17;100608.31;;;7.65;36.21
59971;BME280;45825;45.434;9.116;2023-04-06T04:12:43;100615.78;;;7.76;36.13
59971;BME280;45825;45.434;9.116;2023-04-06T04:15:08;100617.25;;;7.60;36.20
59971;BME280;45825;45.434;9.116;2023-04-06T04:17:34;100610.88;;;7.67;36.54
59971;BME280;45825;45.434;9.116;2023-04-06T04:19:59;100622.50;;;7.60;36.35
59971;BME280;45825;45.434;9.116;2023-04-06T04:22:25;100620.44;;;7.68;36.27
59971;BME280;45825;45.434;9.116;2023-04-06T04:24:50;100626.94;;;7.58;36.11
59971;BME280;45825;45.434;9.116;2023-04-06T04:27:15;100623.44;;;7.57;36.32
59971;BME280;45825;45.434;9.116;2023-04-06T04:29:40;100619.59;;;7.67;36.23
59971;BME280;45825;45.434;9.116;2023-04-06T04:32:06;100617.53;;;7.52;36.83
59971;BME280;45825;45.434;9.116;2023-04-06T04:34:31;100618.69;;;7.45;36.82
59971;BME280;45825;45.434;9.116;2023-04-06T04:36:57;100624.44;;;7.54;36.67
59971;BME280;45825;45.434;9.116;2023-04-06T04:39:23;100630.09;;;7.42;36.62
59971;BME280;45825;45.434;9.116;2023-04-06T04:41:48;100632.63;;;7.45;37.06
59971;BME280;45825;45.434;9.116;2023-04-06T04:44:13;100628.94;;;7.51;36.90
59971;BME280;45825;45.434;9.116;2023-04-06T04:46:40;100628.16;;;7.49;37.13
59971;BME280;45825;45.434;9.116;2023-04-06T04:49:06;100635.13;;;7.48;36.55
59971;BME280;45825;45.434;9.116;2023-04-06T04:51:31;100626.91;;;7.59;36.71
59971;BME280;45825;45.434;9.116;2023-04-06T04:53:57;100622.53;;;7.58;36.78
59971;BME280;45825;45.434;9.116;2023-04-06T04:56:23;100624.47;;;7.77;36.38
59971;BME280;45825;45.434;9.116;2023-04-06T04:58:48;100625.97;;;7.60;36.56
59971;BME280;45825;45.434;9.116;2023-04-06T05:01:13;100628.66;;;7.59;36.76
59971;BME280;45825;45.434;9.116;2023-04-06T05:03:39;100632.72;;;7.42;37.12
59971;BME280;45825;45.434;9.116;2023-04-06T05:06:05;100637.28;;;7.37;37.28
59971;BME280;45825;45.434;9.116;2023-04-06T05:08:31;100637.88;;;7.45;37.16
59971;BME280;45825;45.434;9.116;2023-04-06T05:10:56;100636.22;;;7.66;36.98
59971;BME280;45825;45.434;9.116;2023-04-06T05:13:22;100638.44;;;7.53;36.81
59971;BME280;45825;45.434;9.116;2023-04-06T05:15:47;100641.56;;;7.39;37.21
59971;BME280;45825;45.434;9.116;2023-04-06T05:18:13;100642.88;;;7.51;37.26
59971;BME280;45825;45.434;9.116;2023-04-06T05:20:38;100633.94;;;7.57;37.08
59971;BME280;45825;45.434;9.116;2023-04-06T05:23:04;100637.53;;;7.54;37.35
59971;BME280;45825;45.434;9.116;2023-04-06T05:25:29;100643.09;;;7.45;37.53
59971;BME280;45825;45.434;9.116;2023-04-06T05:27:55;100640.00;;;7.59;37.37
59971;BME280;45825;45.434;9.116;2023-04-06T05:30:21;100641.44;;;7.66;37.02
59971;BME280;45825;45.434;9.116;2023-04-06T05:32:46;100649.88;;;7.75;37.07
59971;BME280;45825;45.434;9.116;2023-04-06T05:35:12;100644.78;;;7.72;37.00
59971;BME280;45825;45.434;9.116;2023-04-06T05:37:38;100645.44;;;7.77;37.05
59971;BME280;45825;45.434;9.116;2023-04-06T05:40:04;100638.81;;;7.90;36.51
59971;BME280;45825;45.434;9.116;2023-04-06T05:42:40;100636.88;;;7.95;36.34
59971;BME280;45825;45.434;9.116;2023-04-06T05:45:10;100654.00;;;7.82;36.83
59971;BME280;45825;45.434;9.116;2023-04-06T05:47:44;100644.00;;;7.92;37.12
59971;BME280;45825;45.434;9.116;2023-04-06T05:50:15;100640.41;;;7.94;36.42
59971;BME280;45825;45.434;9.116;2023-04-06T05:52:41;100647.94;;;8.04;36.48
59971;BME280;45825;45.434;9.116;2023-04-06T05:55:08;100650.44;;;8.07;36.24
59971;BME280;45825;45.434;9.116;2023-04-06T05:57:34;100651.66;;;8.20;35.63
59971;BME280;45825;45.434;9.116;2023-04-06T06:00:00;100651.50;;;8.23;36.09
59971;BME280;45825;45.434;9.116;2023-04-06T06:02:25;100654.59;;;8.57;35.80
59971;BME280;45825;45.434;9.116;2023-04-06T06:04:51;100655.22;;;8.85;35.55
59971;BME280;45825;45.434;9.116;2023-04-06T06:07:17;100654.75;;;8.75;35.52
59971;BME280;45825;45.434;9.116;2023-04-06T06:09:42;100656.72;;;8.70;35.31
59971;BME280;45825;45.434;9.116;2023-04-06T06:12:07;100654.53;;;8.59;35.58
59971;BME280;45825;45.434;9.116;2023-04-06T06:14:33;100663.56;;;8.74;35.23
59971;BME280;45825;45.434;9.116;2023-04-06T06:16:58;100660.19;;;8.70;35.11
59971;BME280;45825;45.434;9.116;2023-04-06T06:19:23;100664.41;;;8.74;35.33
59971;BME280;45825;45.434;9.116;2023-04-06T06:21:49;100659.50;;;8.87;35.52
59971;BME280;45825;45.434;9.116;2023-04-06T06:24:15;100659.16;;;8.74;35.83
59971;BME280;45825;45.434;9.116;2023-04-06T06:26:40;100658.81;;;8.82;35.46
59971;BME280;45825;45.434;9.116;2023-04-06T06:29:06;100660.72;;;8.58;35.82
59971;BME280;45825;45.434;9.116;2023-04-06T06:31:31;100660.75;;;8.56;34.60
59971;BME280;45825;45.434;9.116;2023-04-06T06:33:57;100660.19;;;8.70;35.25
59971;BME280;45825;45.434;9.116;2023-04-06T06:36:22;100670.00;;;8.65;35.72
59971;BME280;45825;45.434;9.116;2023-04-06T06:38:48;100665.50;;;8.69;36.13
59971;BME280;45825;45.434;9.116;2023-04-06T06:41:13;100675.53;;;8.59;36.49
59971;BME280;45825;45.434;9.116;2023-04-06T06:43:38;100671.66;;;8.68;36.37
59971;BME280;45825;45.434;9.116;2023-04-06T06:46:04;100678.56;;;8.70;36.02
59971;BME280;45825;45.434;9.116;2023-04-06T06:48:29;100670.19;;;8.83;34.62
59971;BME280;45825;45.434;9.116;2023-04-06T06:50:56;100672.56;;;8.89;34.63
59971;BME280;45825;45.434;9.116;2023-04-06T06:53:21;100682.84;;;8.93;34.73
59971;BME280;45825;45.434;9.116;2023-04-06T06:55:47;100679.59;;;9.09;34.23
59971;BME280;45825;45.434;9.116;2023-04-06T06:58:14;100683.03;;;9.09;34.39
59971;BME280;45825;45.434;9.116;2023-04-06T07:00:39;100682.59;;;9.20;33.92
59971;BME280;45825;45.434;9.116;2023-04-06T07:03:04;100678.91;;;9.04;33.78
59971;BME280;45825;45.434;9.116;2023-04-06T07:05:30;100675.69;;;8.97;34.29
59971;BME280;45825;45.434;9.116;2023-04-06T07:07:55;100676.69;;;8.94;34.72
59971;BME280;45825;45.434;9.116;2023-04-06T07:10:21;100674.78;;;8.98;33.71
59971;BME280;45825;45.434;9.116;2023-04-06T07:12:46;100680.66;;;9.05;33.43
59971;BME280;45825;45.434;9.116;2023-04-06T07:15:12;100673.84;;;8.99;33.11
59971;BME280;45825;45.434;9.116;2023-04-06T07:17:37;100680.97;;;9.18;32.44
59971;BME280;45825;45.434;9.116;2023-04-06T07:20:02;100679.00;;;9.02;32.47
59971;BME280;45825;45.434;9.116;2023-04-06T07:22:28;100671.44;;;8.94;32.47
59971;BME280;45825;45.434;9.116;2023-04-06T07:24:53;100670.94;;;9.07;32.90
59971;BME280;45825;45.434;9.116;2023-04-06T07:27:19;100669.53;;;9.19;32.09
59971;BME280;45825;45.434;9.116;2023-04-06T07:29:45;100669.22;;;9.27;32.68
59971;BME280;45825;45.434;9.116;2023-04-06T07:32:11;100673.06;;;9.39;32.08
59971;BME280;45825;45.434;9.116;2023-04-06T07:34:37;100675.69;;;9.39;31.88
59971;BME280;45825;45.434;9.116;2023-04-06T07:37:02;100675.22;;;9.49;31.79
59971;BME280;45825;45.434;9.116;2023-04-06T07:39:28;100682.34;;;9.27;33.17
59971;BME280;45825;45.434;9.116;2023-04-06T07:41:53;100678.38;;;9.37;33.29
59971;BME280;45825;45.434;9.116;2023-04-06T07:44:18;100684.56;;;9.36;33.50
59971;BME280;45825;45.434;9.116;2023-04-06T07:46:44;100684.34;;;9.41;34.13
59971;BME280;45825;45.434;9.116;2023-04-06T07:49:11;100682.03;;;9.54;33.80
59971;BME280;45825;45.434;9.116;2023-04-06T07:51:37;100686.97;;;9.41;32.22
59971;BME280;45825;45.434;9.116;2023-04-06T07:54:03;100681.13;;;9.55;32.67
59971;BME280;45825;45.434;9.116;2023-04-06T07:56:29;100684.13;;;9.66;32.53
59971;BME280;45825;45.434;9.116;2023-04-06T07:58:55;100686.03;;;9.62;33.01
59971;BME280;45825;45.434;9.116;2023-04-06T08:01:23;100675.31;;;9.67;33.84
59971;BME280;45825;45.434;9.116;2023-04-06T08:03:49;100678.34;;;9.58;32.37
59971;BME280;45825;45.434;9.116;2023-04-06T08:06:15;100672.56;;;9.70;31.84
59971;BME280;45825;45.434;9.116;2023-04-06T08:08:41;100675.06;;;9.92;32.32
59971;BME280;45825;45.434;9.116;2023-04-06T08:11:07;100666.59;;;10.05;32.41
59971;BME280;45825;45.434;9.116;2023-04-06T08:13:33;100667.09;;;9.94;33.02
59971;BME280;45825;45.434;9.116;2023-04-06T08:15:59;100666.69;;;10.03;33.16
59971;BME280;45825;45.434;9.116;2023-04-06T08:18:25;100664.06;;;10.03;31.31
59971;BME280;45825;45.434;9.116;2023-04-06T08:20:51;100666.59;;;10.05;31.99
59971;BME280;45825;45.434;9.116;2023-04-06T08:23:16;100672.50;;;10.10;31.83
59971;BME280;45825;45.434;9.116;2023-04-06T08:25:42;100665.59;;;10.07;33.04
59971;BME280;45825;45.434;9.116;2023-04-06T08:28:07;100669.06;;;9.89;33.18
59971;BME280;45825;45.434;9.116;2023-04-06T08:30:34;100673.06;;;9.98;31.70
59971;BME280;45825;45.434;9.116;2023-04-06T08:32:59;100668.06;;;10.11;31.93
59971;BME280;45825;45.434;9.116;2023-04-06T08:35:26;100670.22;;;10.22;31.69
59971;BME280;45825;45.434;9.116;2023-04-06T08:37:52;100667.09;;;10.13;30.06
59971;BME280;45825;45.434;9.116;2023-04-06T08:40:18;100676.63;;;10.16;30.32
59971;BME280;45825;45.434;9.116;2023-04-06T08:42:50;100668.78;;;10.14;29.93
59971;BME280;45825;45.434;9.116;2023-04-06T08:45:17;100669.09;;;10.08;30.15
59971;BME280;45825;45.434;9.116;2023-04-06T08:47:46;100669.22;;;10.24;29.64
59971;BME280;45825;45.434;9.116;2023-04-06T08:50:12;100665.19;;;9.98;31.41
59971;BME280;45825;45.434;9.116;2023-04-06T08:52:37;100670.47;;;10.34;31.06
59971;BME280;45825;45.434;9.116;2023-04-06T08:55:03;100662.41;;;10.57;30.07
59971;BME280;45825;45.434;9.116;2023-04-06T08:57:30;100657.09;;;10.76;30.43
59971;BME280;45825;45.434;9.116;2023-04-06T08:59:57;100660.97;;;10.86;30.20
59971;BME280;45825;45.434;9.116;2023-04-06T09:02:23;100642.69;;;11.01;30.11
59971;BME280;45825;45.434;9.116;2023-04-06T09:04:52;100644.09;;;10.73;30.48
59971;BME280;45825;45.434;9.116;2023-04-06T09:07:18;100643.06;;;10.93;30.44
59971;BME280;45825;45.434;9.116;2023-04-06T09:09:43;100646.47;;;11.13;30.00
59971;BME280;45825;45.434;9.116;2023-04-06T09:14:47;100641.81;;;11.18;29.72
59971;BME280;45825;45.434;9.116;2023-04-06T09:17:32;100641.00;;;11.34;29.98
59971;BME280;45825;45.434;9.116;2023-04-06T09:20:00;100643.16;;;11.43;30.10
59971;BME280;45825;45.434;9.116;2023-04-06T09:22:35;100640.47;;;11.44;29.30
59971;BME280;45825;45.434;9.116;2023-04-06T09:25:01;100642.88;;;11.31;29.62
59971;BME280;45825;45.434;9.116;2023-04-06T09:27:31;100637.00;;;11.26;29.94
59971;BME280;45825;45.434;9.116;2023-04-06T09:30:03;100634.72;;;11.02;30.40
59971;BME280;45825;45.434;9.116;2023-04-06T09:32:30;100628.72;;;11.16;31.29
59971;BME280;45825;45.434;9.116;2023-04-06T09:35:06;100618.44;;;11.45;30.23
59971;BME280;45825;45.434;9.116;2023-04-06T09:37:32;100628.88;;;11.47;30.42
59971;BME280;45825;45.434;9.116;2023-04-06T09:40:07;100629.63;;;11.33;30.68
59971;BME280;45825;45.434;9.116;2023-04-06T09:42:33;100627.59;;;11.38;30.73
59971;BME280;45825;45.434;9.116;2023-04-06T09:45:00;100626.63;;;11.73;29.87
59971;BME280;45825;45.434;9.116;2023-04-06T09:47:25;100623.84;;;11.92;29.23
59971;BME280;45825;45.434;9.116;2023-04-06T09:49:56;100626.03;;;11.84;29.35
59971;BME280;45825;45.434;9.116;2023-04-06T09:52:27;100610.72;;;11.74;29.15
59971;BME280;45825;45.434;9.116;2023-04-06T09:54:55;100621.41;;;12.05;28.58
59971;BME280;45825;45.434;9.116;2023-04-06T09:57:32;100629.19;;;12.23;29.34
59971;BME280;45825;45.434;9.116;2023-04-06T10:00:07;100614.66;;;12.32;28.54
59971;BME280;45825;45.434;9.116;2023-04-06T10:02:50;100616.19;;;12.20;28.56
59971;BME280;45825;45.434;9.116;2023-04-06T10:05:24;100618.28;;;12.45;28.29
59971;BME280;45825;45.434;9.116;2023-04-06T10:07:53;100610.63;;;12.71;28.36
59971;BME280;45825;45.434;9.116;2023-04-06T10:10:21;100611.47;;;12.71;28.35
59971;BME280;45825;45.434;9.116;2023-04-06T10:12:47;100607.84;;;13.03;28.66
59971;BME280;45825;45.434;9.116;2023-04-06T10:15:15;100606.38;;;13.28;28.02
59971;BME280;45825;45.434;9.116;2023-04-06T10:17:41;100609.09;;;13.41;28.00
59971;BME280;45825;45.434;9.116;2023-04-06T10:20:10;100611.34;;;14.18;26.74
59971;BME280;45825;45.434;9.116;2023-04-06T10:22:51;100603.59;;;14.43;26.08
59971;BME280;45825;45.434;9.116;2023-04-06T10:25:31;100606.19;;;14.30;26.57
59971;BME280;45825;45.434;9.116;2023-04-06T10:28:05;100596.00;;;15.68;25.28
59971;BME280;45825;45.434;9.116;2023-04-06T10:30:31;100591.34;;;16.92;24.31
59971;BME280;45825;45.434;9.116;2023-04-06T10:32:57;100581.53;;;17.83;23.46
59971;BME280;45825;45.434;9.116;2023-04-06T10:35:22;100578.03;;;18.48;23.13
59971;BME280;45825;45.434;9.116;2023-04-06T10:37:54;100570.97;;;19.42;22.31
59971;BME280;45825;45.434;9.116;2023-04-06T10:40:25;100576.59;;;19.08;21.69
59971;BME280;45825;45.434;9.116;2023-04-06T10:42:55;100578.44;;;18.65;22.18
59971;BME280;45825;45.434;9.116;2023-04-06T10:45:31;100577.00;;;19.44;21.66
59971;BME280;45825;45.434;9.116;2023-04-06T10:47:57;100572.44;;;19.66;21.21
59971;BME280;45825;45.434;9.116;2023-04-06T10:50:23;100569.13;;;20.62;20.51
59971;BME280;45825;45.434;9.116;2023-04-06T10:52:59;100567.56;;;21.17;20.56
59971;BME280;45825;45.434;9.116;2023-04-06T10:55:26;100565.69;;;20.90;20.59
59971;BME280;45825;45.434;9.116;2023-04-06T10:57:53;100564.41;;;20.27;20.69
59971;BME280;45825;45.434;9.116;2023-04-06T11:00:19;100558.25;;;20.93;20.53
59971;BME280;45825;45.434;9.116;2023-04-06T11:02:45;100553.59;;;22.34;19.15
59971;BME280;45825;45.434;9.116;2023-04-06T11:05:11;100554.88;;;20.91;19.78
59971;BME280;45825;45.434;9.116;2023-04-06T11:07:36;100542.31;;;21.58;19.79
59971;BME280;45825;45.434;9.116;2023-04-06T11:10:02;100544.44;;;20.98;20.02
59971;BME280;45825;45.434;9.116;2023-04-06T11:12:28;100532.09;;;21.71;19.67
59971;BME280;45825;45.434;9.116;2023-04-06T11:15:00;100525.91;;;21.89;19.82
59971;BME280;45825;45.434;9.116;2023-04-06T11:17:36;100518.72;;;23.13;19.05
59971;BME280;45825;45.434;9.116;2023-04-06T11:20:03;100521.72;;;23.45;18.56
59971;BME280;45825;45.434;9.116;2023-04-06T11:22:29;100528.56;;;23.05;18.44
59971;BME280;45825;45.434;9.116;2023-04-06T11:25:07;100515.19;;;23.56;18.36
59971;BME280;45825;45.434;9.116;2023-04-06T11:27:35;100515.28;;;23.29;18.12
59971;BME280;45825;45.434;9.116;2023-04-06T11:30:02;100515.81;;;23.33;18.59
59971;BME280;45825;45.434;9.116;2023-04-06T11:32:27;100515.41;;;21.31;19.30
59971;BME280;45825;45.434;9.116;2023-04-06T11:34:52;100512.28;;;23.33;18.38
59971;BME280;45825;45.434;9.116;2023-04-06T11:37:18;100503.28;;;24.66;17.72
59971;BME280;45825;45.434;9.116;2023-04-06T11:39:47;100505.69;;;25.09;17.36
59971;BME280;45825;45.434;9.116;2023-04-06T11:42:21;100484.34;;;25.00;17.03
59971;BME280;45825;45.434;9.116;2023-04-06T11:44:50;100502.59;;;22.70;18.60
59971;BME280;45825;45.434;9.116;2023-04-06T11:47:16;100489.63;;;23.35;18.02
59971;BME280;45825;45.434;9.116;2023-04-06T11:49:44;100490.47;;;24.77;17.26
59971;BME280;45825;45.434;9.116;2023-04-06T11:52:24;100486.63;;;26.21;16.41
59971;BME280;45825;45.434;9.116;2023-04-06T11:54:51;100489.44;;;24.94;16.73
59971;BME280;45825;45.434;9.116;2023-04-06T11:57:18;100478.09;;;23.60;17.98
59971;BME280;45825;45.434;9.116;2023-04-06T11:59:44;100479.63;;;23.62;17.63
59971;BME280;45825;45.434;9.116;2023-04-06T12:02:10;100479.56;;;24.78;16.59
59971;BME280;45825;45.434;9.116;2023-04-06T12:04:36;100466.56;;;24.25;17.10
59971;BME280;45825;45.434;9.116;2023-04-06T12:07:01;100466.56;;;26.00;16.29
59971;BME280;45825;45.434;9.116;2023-04-06T12:09:27;100461.28;;;26.07;15.65
59971;BME280;45825;45.434;9.116;2023-04-06T12:11:52;100461.53;;;25.19;16.33
59971;BME280;45825;45.434;9.116;2023-04-06T12:14:17;100449.88;;;25.58;16.21
59971;BME280;45825;45.434;9.116;2023-04-06T12:16:43;100453.41;;;22.53;17.96
59971;BME280;45825;45.434;9.116;2023-04-06T12:19:09;100441.03;;;23.80;17.64
59971;BME280;45825;45.434;9.116;2023-04-06T12:21:35;100445.88;;;23.43;17.56
59971;BME280;45825;45.434;9.116;2023-04-06T12:24:02;100437.31;;;23.39;17.96
59971;BME280;45825;45.434;9.116;2023-04-06T12:26:29;100426.75;;;23.79;17.33
59971;BME280;45825;45.434;9.116;2023-04-06T12:28:55;100433.19;;;21.05;19.42
59971;BME280;45825;45.434;9.116;2023-04-06T12:31:22;100434.63;;;20.24;20.74
59971;BME280;45825;45.434;9.116;2023-04-06T12:33:50;100430.19;;;20.43;20.49
59971;BME280;45825;45.434;9.116;2023-04-06T12:36:18;100420.09;;;21.02;20.22
59971;BME280;45825;45.434;9.116;2023-04-06T12:38:44;100422.75;;;22.56;19.31
59971;BME280;45825;45.434;9.116;2023-04-06T12:41:11;100412.97;;;22.81;18.35
59971;BME280;45825;45.434;9.116;2023-04-06T12:43:38;100410.91;;;21.33;19.15
59971;BME280;45825;45.434;9.116;2023-04-06T12:46:04;100406.47;;;20.68;19.59
59971;BME280;45825;45.434;9.116;2023-04-06T12:48:29;100400.81;;;21.27;20.29
59971;BME280;45825;45.434;9.116;2023-04-06T12:50:57;100406.09;;;20.05;21.10
59971;BME280;45825;45.434;9.116;2023-04-06T12:53:23;100407.34;;;18.71;22.50
59971;BME280;45825;45.434;9.116;2023-04-06T12:55:48;100408.09;;;19.44;21.77